Time;durP1;ratioP1;P1;durP2;ratioP2;P2;SDS_P1;SDS_P2;PMS_P1;PMS_P2;Temp;Humidity;BMP_temperature;BMP_pressure;BME280_temperature;BME280_humidity;BME280_pressure;Samples;Min_cycle;Max_cycle;Signal;HPM_P1;HPM_P2
2022/01/29 00:00:47;;;;;;;4.25;1.90;;;-0.60;99.90;;;0.10;100.00;98348.84;5025388;28;113951;-74
2022/01/29 00:03:16;;;;;;;2.55;1.58;;;-0.60;99.90;;;0.26;100.00;98350.38;5023322;28;129997;-73
2022/01/29 00:05:44;;;;;;;2.60;1.52;;;-0.50;99.90;;;0.24;100.00;98368.53;5025291;28;130541;-73
2022/01/29 00:08:14;;;;;;;3.78;1.75;;;-0.60;99.90;;;0.25;100.00;98366.66;5023543;28;119023;-73
2022/01/29 00:10:45;;;;;;;3.35;1.48;;;-0.60;99.90;;;0.10;100.00;98378.19;5026518;28;115578;-73
2022/01/29 00:13:13;;;;;;;3.22;1.90;;;-0.60;99.90;;;0.13;100.00;98374.97;5022925;28;130103;-74
2022/01/29 00:15:42;;;;;;;3.03;1.70;;;-0.60;99.90;;;0.15;100.00;98386.16;5022871;28;130356;-73
2022/01/29 00:18:11;;;;;;;3.00;1.60;;;-0.60;99.90;;;0.15;100.00;98388.84;5025608;27;118849;-73
2022/01/29 00:20:40;;;;;;;2.63;1.80;;;-0.60;99.90;;;0.15;100.00;98388.84;5023501;28;114871;-73
2022/01/29 00:23:09;;;;;;;3.45;1.90;;;-0.60;99.90;;;0.18;100.00;98390.97;5022720;28;129847;-73
2022/01/29 00:25:38;;;;;;;2.88;1.83;;;-0.60;99.90;;;0.23;100.00;98393.63;5024829;28;128685;-73
2022/01/29 00:28:07;;;;;;;4.13;1.60;;;-0.60;99.90;;;0.31;100.00;98398.41;5024866;28;117622;-73
2022/01/29 00:30:39;;;;;;;2.78;1.63;;;-0.60;99.90;;;0.32;100.00;98392.00;5022287;28;115152;-73
2022/01/29 00:33:08;;;;;;;2.47;1.55;;;-0.70;99.90;;;0.20;100.00;98404.81;5022196;28;129843;-73
2022/01/29 00:35:38;;;;;;;4.18;1.70;;;-0.70;99.90;;;0.34;100.00;98405.06;5025215;28;129760;-72
2022/01/29 00:38:07;;;;;;;4.97;1.77;;;-0.70;99.90;;;0.18;100.00;98412.31;5023319;28;118679;-73
2022/01/29 00:40:36;;;;;;;3.13;1.77;;;-0.70;99.90;;;0.34;100.00;98416.56;5025057;28;115497;-73
2022/01/29 00:43:07;;;;;;;5.07;1.98;;;-0.70;99.90;;;0.20;100.00;98410.16;5022000;28;131259;-73
2022/01/29 00:45:35;;;;;;;5.22;2.03;;;-0.70;99.90;;;0.29;100.00;98429.91;5024912;28;129496;-73
2022/01/29 00:48:04;;;;;;;3.55;1.90;;;-0.70;99.90;;;0.29;100.00;98435.22;5025916;28;119423;-73
2022/01/29 00:50:32;;;;;;;3.35;1.63;;;-0.70;99.90;;;0.25;100.00;98428.84;5024825;27;114248;-73
2022/01/29 00:53:01;;;;;;;3.63;1.80;;;-0.70;99.90;;;0.27;100.00;98426.69;5027394;28;129950;-73
2022/01/29 00:55:29;;;;;;;3.50;1.40;;;-0.70;99.90;;;0.10;100.00;98426.19;5027562;28;129819;-73
2022/01/29 00:57:58;;;;;;;3.35;1.80;;;-0.70;99.90;;;0.34;100.00;98437.91;5028232;28;118825;-73
2022/01/29 01:00:28;;;;;;;4.40;1.80;;;-0.80;99.90;;;0.10;100.00;98442.22;5025164;28;114908;-73
2022/01/29 01:02:57;;;;;;;3.05;1.70;;;-0.80;99.90;;;0.03;100.00;98452.34;5026184;28;129822;-73
2022/01/29 01:05:25;;;;;;;2.67;1.52;;;-0.70;99.90;;;0.22;100.00;98455.25;5025721;28;131156;-73
2022/01/29 01:07:54;;;;;;;3.38;1.65;;;-0.70;99.90;;;-0.04;100.00;98458.75;5027903;28;118993;-73
2022/01/29 01:10:22;;;;;;;5.35;2.22;;;-0.70;99.90;;;0.24;100.00;98458.47;5025968;28;115160;-72
2022/01/29 01:12:51;;;;;;;3.00;1.73;;;-0.80;99.90;;;0.17;100.00;98458.72;5025500;28;130689;-73
2022/01/29 01:15:19;;;;;;;3.92;1.88;;;-0.70;99.90;;;0.26;100.00;98457.13;5027360;28;129241;-71
2022/01/29 01:17:49;;;;;;;2.92;1.75;;;-0.80;99.90;;;0.13;100.00;98473.69;5026243;28;118938;-72
2022/01/29 01:20:18;;;;;;;3.55;1.85;;;-0.80;99.90;;;0.28;100.00;98470.19;5027800;28;115067;-72
2022/01/29 01:22:47;;;;;;;2.83;1.70;;;-0.80;99.90;;;0.31;100.00;98475.00;5028017;27;129995;-73
2022/01/29 01:25:15;;;;;;;3.80;2.00;;;-0.80;99.90;;;0.07;100.00;98485.44;5025501;28;129867;-72
2022/01/29 01:27:44;;;;;;;2.83;1.60;;;-0.80;99.90;;;-0.10;100.00;98483.81;5025718;28;119086;-72
2022/01/29 01:30:13;;;;;;;3.33;1.67;;;-0.80;99.90;;;0.07;100.00;98475.56;5026206;28;115572;-73
2022/01/29 01:32:42;;;;;;;3.33;2.03;;;-0.80;99.90;;;0.16;100.00;98486.50;5025169;28;129890;-72
2022/01/29 01:35:18;;;;;;;4.88;1.60;;;-0.80;99.90;;;0.00;100.00;98483.03;5027065;28;130498;-73
2022/01/29 01:37:50;;;;;;;4.18;1.63;;;-0.80;99.90;;;0.02;100.00;98490.75;5025842;28;118815;-72
2022/01/29 01:40:20;;;;;;;2.10;1.40;;;-0.80;99.90;;;-0.14;100.00;98489.94;5029218;28;115060;-73
2022/01/29 01:42:49;;;;;;;3.63;1.67;;;-0.90;99.90;;;-0.18;100.00;98492.34;5025377;28;129830;-73
2022/01/29 01:45:17;;;;;;;3.20;1.45;;;-0.90;99.90;;;-0.12;100.00;98488.63;5025442;28;130336;-72
2022/01/29 01:47:46;;;;;;;3.95;1.58;;;-0.80;99.90;;;0.09;100.00;98496.63;5028107;27;119233;-73
2022/01/29 01:50:16;;;;;;;2.70;1.50;;;-0.80;99.90;;;0.05;100.00;98496.38;5026104;28;114809;-73
2022/01/29 01:52:44;;;;;;;4.28;1.40;;;-0.90;99.90;;;0.03;99.98;98517.16;5026291;28;130294;-73
2022/01/29 01:55:15;;;;;;;2.50;1.30;;;-0.90;99.90;;;-0.04;100.00;98497.97;5024723;28;130890;-72
2022/01/29 01:57:43;;;;;;;3.10;1.90;;;-0.90;99.90;;;0.12;100.00;98499.56;5023767;28;119067;-73
2022/01/29 02:00:14;;;;;;;3.00;1.45;;;-0.90;99.90;;;0.03;99.90;98495.81;5026107;28;115081;-73
2022/01/29 02:02:42;;;;;;;2.45;1.55;;;-0.90;99.90;;;0.06;99.66;98515.84;5027414;28;130468;-73
2022/01/29 02:05:12;;;;;;;1.48;1.27;;;-0.90;99.90;;;0.15;99.66;98524.91;5024728;28;129709;-72
2022/01/29 02:07:42;;;;;;;3.17;1.50;;;-0.90;99.90;;;0.22;99.07;98525.47;5025263;28;119847;-73
2022/01/29 02:10:12;;;;;;;4.18;1.50;;;-0.90;99.90;;;0.09;99.55;98524.09;5026879;28;115735;-73
2022/01/29 02:12:53;;;;;;;2.75;1.40;;;-1.00;99.90;;;-0.02;100.00;98523.31;5026667;28;130404;-73
2022/01/29 02:15:23;;;;;;;3.65;1.40;;;-1.00;99.90;;;-0.05;100.00;98518.50;5027244;28;129832;-72
2022/01/29 02:17:52;;;;;;;2.45;1.30;;;-1.00;99.90;;;-0.15;100.00;98529.16;5025311;28;118845;-72
2022/01/29 02:20:24;;;;;;;2.38;1.33;;;-1.10;99.90;;;-0.18;100.00;98545.69;5026310;28;116562;-72
2022/01/29 02:22:54;;;;;;;2.00;1.48;;;-1.10;99.90;;;-0.14;99.83;98536.09;5027173;27;130358;-72
2022/01/29 02:25:37;;;;;;;2.40;1.38;;;-1.10;99.90;;;-0.14;99.52;98549.44;5024783;28;130476;-72
2022/01/29 02:28:09;;;;;;;3.10;1.42;;;-1.10;99.90;;;-0.06;99.28;98546.25;5028003;28;119323;-72
2022/01/29 02:30:39;;;;;;;3.38;2.03;;;-1.10;99.90;;;-0.07;98.31;98544.63;5024999;28;115034;-73
2022/01/29 02:33:12;;;;;;;2.85;1.58;;;-1.10;99.90;;;-0.20;98.99;98563.84;5024906;28;129854;-71
2022/01/29 02:35:43;;;;;;;2.65;1.50;;;-1.10;99.90;;;-0.27;99.51;98556.06;5024834;28;129806;-73
2022/01/29 02:38:16;;;;;;;2.83;1.40;;;-1.10;99.90;;;-0.42;99.47;98554.19;5023838;28;118712;-72
2022/01/29 02:40:47;;;;;;;2.35;1.10;;;-1.20;99.90;;;-0.64;100.00;98577.53;5025597;28;114677;-72
2022/01/29 02:43:21;;;;;;;1.48;1.23;;;-1.20;99.90;;;-0.56;100.00;98569.84;5026061;28;128488;-72
2022/01/29 02:45:52;;;;;;;3.30;1.92;;;-1.20;99.90;;;-0.43;100.00;98573.88;5026167;27;130506;-72
2022/01/29 02:48:22;;;;;;;1.25;1.10;;;-1.20;99.90;;;-0.57;99.76;98559.44;5026874;27;119020;-73
2022/01/29 02:50:52;;;;;;;2.45;1.40;;;-1.20;99.90;;;-0.75;100.00;98576.69;5024993;28;115151;-72
2022/01/29 02:53:22;;;;;;;3.20;1.48;;;-1.20;99.90;;;-0.76;100.00;98583.09;5026843;27;129957;-72
2022/01/29 02:55:50;;;;;;;1.80;1.20;;;-1.20;99.90;;;-0.78;100.00;98567.38;5024983;28;130318;-72
2022/01/29 02:58:19;;;;;;;3.03;1.27;;;-1.20;99.90;;;-0.67;100.00;98588.72;5024561;28;119143;-72
2022/01/29 03:00:47;;;;;;;1.98;1.30;;;-1.20;99.90;;;-0.74;100.00;98581.75;5026767;28;114627;-72
2022/01/29 03:03:16;;;;;;;2.10;1.33;;;-1.30;99.90;;;-0.68;100.00;98579.13;5026359;28;130321;-72
2022/01/29 03:05:44;;;;;;;4.35;1.52;;;-1.20;99.90;;;-0.68;99.70;98587.13;5024063;28;129584;-73
2022/01/29 03:08:13;;;;;;;1.83;1.30;;;-1.30;99.90;;;-0.64;99.12;98598.84;5024082;28;118859;-73
2022/01/29 03:10:46;;;;;;;2.70;1.60;;;-1.30;99.90;;;-0.83;99.53;98601.97;5025668;28;116276;-71
2022/01/29 03:13:16;;;;;;;1.73;1.27;;;-1.30;99.90;;;-0.80;99.50;98596.13;5024329;27;129982;-71
2022/01/29 03:15:44;;;;;;;2.20;1.40;;;-1.30;99.90;;;-0.88;99.39;98609.94;5022678;28;129801;-71
2022/01/29 03:18:13;;;;;;;2.28;1.40;;;-1.30;99.90;;;-0.77;99.26;98594.81;5023894;28;119149;-71
2022/01/29 03:20:42;;;;;;;1.88;1.13;;;-1.30;99.90;;;-0.79;99.08;98613.72;5023838;28;114945;-70
2022/01/29 03:23:12;;;;;;;3.55;1.27;;;-1.30;99.90;;;-0.69;98.51;98618.28;5022160;28;130505;-71
2022/01/29 03:25:42;;;;;;;1.88;1.20;;;-1.30;99.90;;;-0.77;98.70;98611.59;5025327;28;129888;-70
2022/01/29 03:28:10;;;;;;;3.58;1.65;;;-1.30;99.90;;;-0.66;98.20;98623.09;5023394;28;118843;-71
2022/01/29 03:30:40;;;;;;;1.85;1.10;;;-1.30;99.90;;;-0.82;98.04;98640.88;5026138;28;114951;-71
2022/01/29 03:33:08;;;;;;;2.22;1.20;;;-1.30;99.90;;;-0.75;97.72;98629.97;5023583;28;131271;-70
2022/01/29 03:35:36;;;;;;;2.90;1.33;;;-1.30;99.90;;;-0.80;97.97;98630.75;5024091;28;129777;-70
2022/01/29 03:38:06;;;;;;;4.38;1.27;;;-1.30;99.90;;;-0.74;97.93;98628.94;5025099;28;118850;-70
2022/01/29 03:40:35;;;;;;;2.25;1.40;;;-1.30;99.90;;;-0.99;98.02;98637.56;5023085;28;115195;-70
2022/01/29 03:43:08;;;;;;;2.70;1.33;;;-1.30;99.90;;;-0.78;96.67;98636.66;5022218;28;130693;-70
2022/01/29 03:45:37;;;;;;;3.78;1.40;;;-1.30;99.90;;;-0.77;97.10;98638.22;5023366;28;129713;-70
2022/01/29 03:48:07;;;;;;;1.98;1.20;;;-1.30;99.90;;;-0.83;96.29;98655.25;5022603;28;118972;-71
2022/01/29 03:50:37;;;;;;;1.95;1.20;;;-1.30;99.90;;;-0.71;96.34;98646.28;5023258;28;115019;-70
2022/01/29 03:53:05;;;;;;;4.35;1.10;;;-1.30;99.90;;;-0.82;96.57;98654.19;5024895;28;131198;-70
2022/01/29 03:55:34;;;;;;;4.38;1.30;;;-1.30;99.90;;;-0.77;96.12;98658.75;5026665;28;129870;-71
2022/01/29 03:58:04;;;;;;;1.20;1.00;;;-1.40;99.90;;;-0.84;95.70;98658.97;5024310;28;118790;-71
2022/01/29 04:00:32;;;;;;;1.33;1.20;;;-1.40;99.90;;;-1.04;96.03;98674.81;5025416;28;115544;-71
2022/01/29 04:03:01;;;;;;;2.38;1.42;;;-1.40;99.90;;;-1.06;96.18;98696.41;5022732;28;130670;-72
2022/01/29 04:05:30;;;;;;;5.93;1.42;;;-1.40;99.90;;;-0.90;95.83;98686.66;5022771;28;129888;-71
2022/01/29 04:07:58;;;;;;;4.30;1.35;;;-1.40;99.90;;;-0.93;95.62;98681.84;5024790;28;118441;-71
2022/01/29 04:10:29;;;;;;;2.05;1.10;;;-1.40;99.90;;;-0.95;95.44;98689.25;5022796;28;114960;-71
2022/01/29 04:12:57;;;;;;;2.42;1.20;;;-1.40;98.20;;;-0.90;95.45;98676.00;5023290;28;130327;-71
2022/01/29 04:15:27;;;;;;;1.55;1.35;;;-1.40;99.90;;;-0.82;94.88;98688.03;5022517;28;129787;-71
2022/01/29 04:17:56;;;;;;;3.28;1.13;;;-1.40;97.00;;;-0.91;94.00;98695.69;5024422;28;118234;-71
2022/01/29 04:20:24;;;;;;;1.70;1.20;;;-1.50;91.70;;;-1.02;94.17;98710.00;5024303;28;115123;-72
2022/01/29 04:22:53;;;;;;;2.70;1.20;;;-1.50;89.70;;;-1.06;93.27;98699.06;5022438;28;129968;-71
2022/01/29 04:25:23;;;;;;;4.30;1.58;;;-1.50;86.80;;;-0.91;93.39;98706.34;5024734;28;129574;-72
2022/01/29 04:27:52;;;;;;;2.30;1.10;;;-1.60;88.60;;;-1.23;94.12;98715.16;5027850;28;118966;-72
2022/01/29 04:30:28;;;;;;;2.00;1.30;;;-1.70;88.10;;;-1.23;94.05;98728.47;5028256;28;115014;-71
2022/01/29 04:33:15;;;;;;;2.15;1.20;;;-1.70;85.10;;;-1.19;93.65;98726.09;5028607;28;130098;-72
2022/01/29 04:35:43;;;;;;;2.43;1.20;;;-1.70;84.50;;;-1.35;93.60;98709.19;5025547;28;129398;-72
2022/01/29 04:38:12;;;;;;;1.73;1.15;;;-1.70;80.30;;;-1.28;93.61;98733.72;5026027;28;118853;-72
2022/01/29 04:40:41;;;;;;;3.65;1.30;;;-1.70;80.00;;;-1.20;93.48;98727.97;5026834;28;115644;-72
2022/01/29 04:43:10;;;;;;;1.75;0.98;;;-1.70;75.40;;;-1.14;92.76;98734.13;5025476;28;129837;-72
2022/01/29 04:45:40;;;;;;;1.23;0.90;;;-1.60;77.70;;;-1.22;92.94;98737.25;5027930;28;129734;-72
2022/01/29 04:48:10;;;;;;;2.42;1.00;;;-1.60;69.70;;;-1.07;92.69;98739.25;5027399;28;117970;-72
2022/01/29 04:50:39;;;;;;;1.27;0.90;;;-1.60;72.80;;;-1.05;92.23;98731.81;5027290;27;116061;-72
2022/01/29 04:53:08;;;;;;;0.85;0.80;;;-1.60;71.50;;;-1.10;92.55;98744.00;5027379;28;129567;-72
2022/01/29 04:55:37;;;;;;;1.35;0.90;;;-1.60;71.20;;;-0.93;92.41;98740.44;5027695;28;130082;-72
2022/01/29 04:58:06;;;;;;;2.75;1.02;;;-1.60;76.50;;;-1.13;92.62;98749.06;5028222;28;119993;-72
2022/01/29 05:00:35;;;;;;;1.10;1.00;;;-1.60;70.00;;;-0.99;92.00;98746.78;5025878;28;115485;-72
2022/01/29 05:03:10;;;;;;;1.83;1.10;;;-1.60;70.80;;;-1.13;92.56;98755.19;5025123;28;130498;-71
2022/01/29 05:05:40;;;;;;;2.25;1.00;;;-1.60;66.00;;;-1.28;91.81;98739.06;5025330;28;130065;-71
2022/01/29 05:08:11;;;;;;;1.25;0.90;;;-1.60;56.40;;;-1.25;91.72;98743.88;5025366;28;119382;-71
2022/01/29 05:10:40;;;;;;;1.25;0.93;;;-1.60;53.90;;;-1.24;91.53;98750.03;5025382;28;115293;-70
2022/01/29 05:13:11;;;;;;;1.45;1.00;;;-1.60;48.90;;;-1.28;92.31;98749.69;5024571;28;129889;-71
2022/01/29 05:15:44;;;;;;;1.63;1.17;;;-1.60;52.80;;;-1.15;92.22;98749.31;5026329;28;130001;-71
2022/01/29 05:26:51;;;;;;;2.53;1.30;;;-1.70;59.70;;;-1.38;91.68;98761.06;5024933;28;129664;-70
2022/01/29 05:29:20;;;;;;;2.45;1.10;;;-1.70;53.40;;;-1.13;91.36;98768.50;5027695;28;119191;-71
2022/01/29 05:31:51;;;;;;;2.25;1.33;;;-1.70;65.00;;;-1.19;90.84;98758.84;5026244;28;115493;-72
2022/01/29 05:34:23;;;;;;;1.20;0.90;;;-1.80;62.70;;;-1.23;90.98;98762.25;5024998;28;130543;-72
2022/01/29 05:36:53;;;;;;;1.67;0.93;;;-1.80;62.10;;;-1.29;90.62;98753.44;5023916;27;131348;-71
2022/01/29 05:39:24;;;;;;;1.80;0.90;;;-1.80;56.60;;;-1.13;89.66;98771.16;5027041;28;118768;-71
2022/01/29 05:41:53;;;;;;;2.15;1.00;;;-1.80;51.90;;;-1.23;89.56;98762.25;5009544;28;114795;-71
2022/01/29 05:44:22;;;;;;;1.50;0.90;;;-1.80;48.60;;;-1.02;88.53;98773.91;5026643;27;130293;-71
2022/01/29 05:46:51;;;;;;;1.10;1.00;;;-1.80;53.80;;;-1.31;88.20;98782.16;5025767;28;129720;-71
2022/01/29 05:49:21;;;;;;;2.35;1.00;;;-1.80;44.30;;;-1.19;87.67;98774.03;5026492;28;118968;-71
2022/01/29 05:51:50;;;;;;;2.33;1.45;;;-1.90;36.40;;;-1.15;86.36;98775.94;5026633;28;114203;-71
2022/01/29 05:54:19;;;;;;;1.20;1.10;;;-1.80;31.10;;;-1.22;86.80;98779.84;5027001;28;129912;-71
2022/01/29 05:56:48;;;;;;;0.85;0.82;;;-1.80;29.20;;;-1.19;86.81;98782.81;5024292;28;129945;-71
2022/01/29 05:59:16;;;;;;;1.40;1.05;;;-1.90;29.60;;;-1.18;86.39;98779.09;5025347;28;119175;-71
2022/01/29 06:01:44;;;;;;;1.70;0.90;;;-1.90;30.90;;;-1.09;86.19;98784.78;5024616;28;115532;-70
2022/01/29 06:04:13;;;;;;;2.88;1.20;;;-1.90;32.80;;;-1.06;85.15;98799.44;5023906;28;129868;-70
2022/01/29 06:06:43;;;;;;;2.35;1.20;;;-1.90;25.70;;;-1.09;85.90;98798.91;5026461;28;129704;-72
2022/01/29 06:09:12;;;;;;;1.92;1.00;;;-1.90;30.30;;;-1.07;85.39;98803.19;5024150;28;118921;-70
2022/01/29 06:11:40;;;;;;;1.95;1.20;;;-1.90;29.10;;;-1.13;85.58;98800.44;5025022;28;115238;-72
2022/01/29 06:14:09;;;;;;;1.80;1.02;;;-1.90;28.80;;;-1.31;85.84;98798.13;5025876;28;130589;-72
2022/01/29 06:16:37;;;;;;;2.38;1.30;;;-1.90;20.20;;;-1.04;86.31;98802.66;5023801;28;129804;-71
2022/01/29 06:19:06;;;;;;;1.48;1.00;;;-1.90;30.70;;;-1.05;84.27;98823.16;5025419;28;119654;-72
2022/01/29 06:21:34;;;;;;;1.60;1.10;;;-1.90;22.80;;;-1.02;84.61;98813.88;5023473;28;119717;-71
2022/01/29 06:24:06;;;;;;;1.63;1.00;;;-1.80;23.10;;;-1.16;85.13;98827.56;5022434;28;130088;-71
2022/01/29 06:26:34;;;;;;;1.55;1.25;;;-1.80;22.10;;;-1.07;84.49;98819.16;5022560;28;129855;-71
2022/01/29 06:29:04;;;;;;;1.98;1.20;;;-1.80;23.20;;;-0.94;84.39;98824.84;5021517;28;122118;-71
2022/01/29 06:31:32;;;;;;;1.88;1.27;;;-1.80;24.10;;;-0.81;84.39;98838.81;5021588;28;121364;-71
2022/01/29 06:34:01;;;;;;;4.13;1.70;;;-1.80;25.70;;;-0.67;83.35;98833.88;5022339;28;129998;-71
2022/01/29 06:36:29;;;;;;;6.75;3.03;;;-1.80;23.60;;;-0.72;83.63;98837.31;5023365;28;129672;-70
2022/01/29 06:38:57;;;;;;;5.25;2.40;;;-1.70;23.20;;;-0.78;84.13;98839.16;5023693;28;119893;-72
2022/01/29 06:41:28;;;;;;;7.43;3.17;;;-1.70;21.40;;;-0.59;82.72;98846.78;5024641;28;120735;-71
2022/01/29 06:43:56;;;;;;;4.65;2.88;;;-1.70;21.70;;;-0.41;82.24;98849.03;5024320;27;129888;-71
2022/01/29 06:46:26;;;;;;;4.05;2.28;;;-1.70;25.50;;;-0.39;81.90;98841.59;5022439;28;131567;-70
2022/01/29 06:48:54;;;;;;;2.67;1.50;;;-1.70;22.50;;;-0.47;81.86;98852.69;5014215;27;118990;-72
2022/01/29 06:51:22;;;;;;;2.42;1.52;;;-1.70;21.90;;;-0.50;82.43;98857.75;5020851;28;119969;-71
2022/01/29 06:53:51;;;;;;;6.07;3.05;;;-1.70;24.60;;;-0.49;81.95;98857.50;5022471;28;130152;-71
2022/01/29 06:56:20;;;;;;;6.70;3.65;;;-1.80;24.50;;;-0.62;82.84;98872.06;5024100;28;130075;-70
2022/01/29 06:58:50;;;;;;;6.05;2.65;;;-1.80;24.60;;;-0.42;82.78;98858.09;5021905;28;119759;-72
2022/01/29 07:01:18;;;;;;;2.63;1.63;;;-1.80;28.20;;;-0.23;82.25;98868.38;5005546;28;120141;-70
2022/01/29 07:03:47;;;;;;;3.53;1.90;;;-1.70;33.50;;;-0.34;82.34;98877.34;5020198;28;129994;-71
2022/01/29 07:06:15;;;;;;;3.38;1.60;;;-1.70;28.30;;;-0.05;82.14;98872.47;5021068;28;129706;-71
2022/01/29 07:08:44;;;;;;;4.07;1.67;;;-1.60;31.30;;;-0.10;82.83;98859.91;5023569;28;120050;-71
2022/01/29 07:11:12;;;;;;;5.40;2.88;;;-1.60;31.00;;;0.04;82.64;98870.94;5022210;28;119889;-70
2022/01/29 07:13:41;;;;;;;2.72;1.50;;;-1.50;38.30;;;-0.43;83.79;98877.81;5020020;28;130293;-69
2022/01/29 07:16:11;;;;;;;1.38;1.08;;;-1.60;27.70;;;-0.57;83.96;98860.63;5021004;28;129701;-70
2022/01/29 07:18:39;;;;;;;3.22;1.67;;;-1.60;26.50;;;-0.30;83.40;98870.44;5019863;28;121968;-70
2022/01/29 07:21:09;;;;;;;5.55;2.65;;;-1.60;28.60;;;-0.63;83.92;98877.63;5023073;28;121899;-71
2022/01/29 07:23:37;;;;;;;4.15;2.15;;;-1.60;19.60;;;-0.40;83.39;98871.16;5020818;28;130230;-71
2022/01/29 07:26:06;;;;;;;1.88;1.25;;;-1.50;21.50;;;-0.32;83.66;98873.34;5019901;28;129824;-70
2022/01/29 07:28:34;;;;;;;4.85;2.33;;;-1.50;21.00;;;-0.11;83.03;98879.66;5021071;28;119490;-71
2022/01/29 07:31:04;;;;;;;5.47;2.80;;;-1.40;22.80;;;0.17;81.46;98869.66;5021073;28;119464;-71
2022/01/29 07:33:34;;;;;;;4.90;2.42;;;-1.30;24.80;;;0.48;80.61;98875.19;5021216;28;129819;-70
2022/01/29 07:36:03;;;;;;;1.95;1.10;;;-1.30;27.70;;;-0.12;82.51;98880.72;5020213;28;129872;-70
2022/01/29 07:38:31;;;;;;;2.58;1.08;;;-1.40;19.70;;;-0.36;83.18;98880.25;5024023;28;119652;-71
2022/01/29 07:41:00;;;;;;;4.78;2.05;;;-1.50;18.60;;;-0.04;82.90;98874.88;5020729;28;119246;-70
2022/01/29 07:43:28;;;;;;;4.07;1.70;;;-1.40;26.30;;;-0.08;83.06;98868.47;5013436;28;129627;-70
2022/01/29 07:45:57;;;;;;;2.63;1.30;;;-1.40;25.00;;;-0.77;84.45;98875.38;5001886;28;129858;-72
2022/01/29 07:48:26;;;;;;;3.13;1.40;;;-1.60;19.00;;;-0.73;84.93;98879.16;5000358;28;119392;-70
2022/01/29 07:50:55;;;;;;;4.40;1.92;;;-1.60;21.20;;;-0.33;84.26;98877.06;5002513;28;118185;-71
2022/01/29 07:53:24;;;;;;;4.90;1.90;;;-1.60;28.10;;;-0.15;84.19;98877.75;5001722;28;129761;-70
2022/01/29 07:55:52;;;;;;;6.25;2.63;;;-1.50;30.70;;;0.13;83.45;98885.41;5000466;28;129623;-70
2022/01/29 07:58:21;;;;;;;7.47;4.25;;;-1.40;32.70;;;0.24;83.23;98880.94;4999453;28;119816;-70
2022/01/29 08:00:50;;;;;;;3.45;2.30;;;-1.30;38.30;;;-0.06;84.20;98887.69;5000543;28;119565;-70
2022/01/29 08:03:19;;;;;;;5.75;2.97;;;-1.40;32.60;;;0.09;84.33;98889.63;5000262;28;130210;-71
2022/01/29 08:05:47;;;;;;;6.88;3.33;;;-1.40;38.30;;;0.24;84.63;98894.28;5000683;28;130322;-70
2022/01/29 08:08:17;;;;;;;14.90;7.28;;;-1.20;41.80;;;0.74;82.63;98891.31;4999222;28;121870;-70
2022/01/29 08:10:46;;;;;;;10.20;7.05;;;-1.00;46.10;;;1.17;81.32;98891.97;5001697;28;121547;-70
2022/01/29 08:13:14;;;;;;;9.77;6.38;;;-0.90;50.10;;;0.93;81.48;98881.75;5001985;28;128858;-71
2022/01/29 08:15:43;;;;;;;10.52;6.60;;;-0.90;35.00;;;1.23;80.02;98896.25;4999947;28;130030;-69
2022/01/29 08:18:11;;;;;;;5.78;3.10;;;-0.80;37.50;;;1.34;78.24;98892.53;5000687;28;119788;-70
2022/01/29 08:20:40;;;;;;;4.53;2.40;;;-0.80;28.10;;;1.15;77.44;98889.56;5000072;28;119366;-70
2022/01/29 08:23:09;;;;;;;5.97;2.80;;;-0.80;21.10;;;0.98;77.90;98899.66;4999128;28;130676;-69
2022/01/29 08:25:39;;;;;;;4.97;2.20;;;-1.00;14.90;;;0.94;76.72;98896.72;5019099;28;129278;-71
2022/01/29 08:28:08;;;;;;;6.93;3.53;;;-0.90;11.70;;;0.93;75.84;98905.81;5020383;28;119418;-69
2022/01/29 08:30:36;;;;;;;11.02;4.95;;;-0.90;5.50;;;0.78;76.22;98911.09;5021918;28;120069;-70
2022/01/29 08:33:06;;;;;;;6.75;3.80;;;-0.90;6.50;;;0.68;75.41;98907.31;5017862;28;130036;-71
2022/01/29 08:35:35;;;;;;;7.75;2.55;;;-1.00;1.00;;;0.06;76.64;98910.72;5018300;28;129559;-70
2022/01/29 08:38:04;;;;;;;5.13;1.85;;;-1.30;1.00;;;-0.53;79.35;98907.06;5020383;28;120239;-70
2022/01/29 08:40:33;;;;;;;5.65;1.90;;;-1.40;1.00;;;-0.88;78.15;98913.63;5020124;28;119473;-70
2022/01/29 08:43:03;;;;;;;3.63;1.50;;;-1.50;1.00;;;-1.15;79.06;98919.72;5013805;28;129949;-70
2022/01/29 08:45:32;;;;;;;7.97;3.08;;;-1.60;1.00;;;-0.89;79.26;98916.53;4999978;28;129573;-73
2022/01/29 08:48:00;;;;;;;10.13;3.10;;;-1.50;1.00;;;-0.71;80.22;98923.41;5000139;28;119498;-70
2022/01/29 08:50:29;;;;;;;8.77;2.63;;;-1.50;1.00;;;-0.24;78.87;98928.88;5002407;28;120344;-70
2022/01/29 08:52:58;;;;;;;8.05;3.78;;;-1.40;1.00;;;-0.21;79.23;98923.03;5000288;28;130330;-71
2022/01/29 08:55:26;;;;;;;6.35;2.85;;;-1.30;1.00;;;-0.10;77.15;98918.59;4999288;28;130202;-69
2022/01/29 08:57:55;;;;;;;4.55;2.13;;;-1.30;1.00;;;0.08;76.99;98909.41;4998433;28;122965;-70
2022/01/29 09:00:25;;;;;;;4.28;2.28;;;-1.30;1.00;;;0.50;75.30;98903.22;5001791;28;121755;-71
2022/01/29 09:02:54;;;;;;;5.72;1.85;;;-1.10;1.00;;;-0.19;77.54;98909.44;4999842;28;130550;-70
2022/01/29 09:05:22;;;;;;;8.02;2.58;;;-1.30;1.00;;;-0.15;77.98;98905.22;4998437;28;129798;-70
2022/01/29 09:07:51;;;;;;;2.85;1.42;;;-1.30;1.00;;;-0.09;76.67;98903.41;5000111;28;119875;-70
2022/01/29 09:10:19;;;;;;;4.95;2.10;;;-1.30;1.00;;;-0.25;78.29;98902.47;5002294;28;119399;-70
2022/01/29 09:12:48;;;;;;;7.88;3.13;;;-1.30;1.00;;;-0.03;77.37;98907.72;5002268;28;131033;-70
2022/01/29 09:15:16;;;;;;;5.63;2.53;;;-1.20;1.00;;;0.01;76.87;98906.13;5002760;28;129750;-70
2022/01/29 09:17:46;;;;;;;8.27;3.50;;;-1.30;1.00;;;0.41;76.58;98906.66;5003032;28;119959;-70
2022/01/29 09:20:17;;;;;;;8.55;4.28;;;-1.10;1.00;;;0.32;76.15;98915.13;5002940;28;119327;-69
2022/01/29 09:22:45;;;;;;;10.80;5.82;;;-1.20;1.00;;;0.44;77.05;98911.47;5000555;28;129814;-70
2022/01/29 09:25:15;;;;;;;10.43;4.10;;;-1.10;1.00;;;-0.04;78.50;98917.56;5002606;28;130971;-70
2022/01/29 09:27:43;;;;;;;9.73;4.78;;;-1.20;1.00;;;0.64;77.68;98900.91;5003554;28;119340;-71
2022/01/29 09:30:12;;;;;;;9.25;4.05;;;-1.00;2.50;;;0.90;76.27;98917.00;5004449;28;119573;-70
2022/01/29 09:32:40;;;;;;;7.85;4.10;;;-1.00;1.80;;;0.73;76.20;98921.75;5004094;28;129894;-71
2022/01/29 09:35:11;;;;;;;7.90;4.55;;;-1.00;1.00;;;1.07;76.18;98917.59;5001315;28;130538;-70
2022/01/29 09:37:39;;;;;;;7.03;3.55;;;-0.90;2.70;;;1.11;76.00;98919.75;5002192;28;119611;-71
2022/01/29 09:40:10;;;;;;;11.63;5.82;;;-0.90;2.10;;;1.29;74.78;98916.56;5004891;28;119470;-70
2022/01/29 09:42:39;;;;;;;11.60;5.88;;;-0.90;4.80;;;1.55;74.07;98922.78;5004641;28;129903;-70
2022/01/29 09:45:12;;;;;;;12.40;6.18;;;-0.80;5.60;;;1.34;75.25;98919.28;5024905;28;129715;-71
2022/01/29 09:47:42;;;;;;;14.63;7.70;;;-0.90;3.60;;;1.58;74.48;98924.91;5020158;28;122153;-70
2022/01/29 09:50:14;;;;;;;10.48;5.70;;;-0.80;9.50;;;1.75;73.71;98926.56;5025455;28;122029;-70
2022/01/29 09:52:43;;;;;;;5.70;3.00;;;-0.70;6.30;;;1.65;73.36;98924.66;5023102;28;129875;-71
2022/01/29 09:55:13;;;;;;;10.80;5.53;;;-0.80;3.30;;;1.57;74.11;98926.00;5022384;28;129861;-70
2022/01/29 09:57:41;;;;;;;7.50;3.78;;;-0.80;2.80;;;1.20;73.25;98928.84;5024953;28;119894;-71
2022/01/29 10:00:11;;;;;;;7.15;3.30;;;-0.80;1.00;;;1.46;70.93;98920.91;5019976;28;119410;-70
2022/01/29 10:02:42;;;;;;;11.85;6.78;;;-0.60;1.00;;;1.89;70.39;98924.94;5022601;28;129898;-71
2022/01/29 10:05:13;;;;;;;7.45;3.78;;;-0.50;1.00;;;0.53;73.59;98921.41;5003186;28;130047;-71
2022/01/29 10:07:42;;;;;;;5.45;2.10;;;-0.50;1.00;;;0.54;73.34;98924.88;5002796;28;120687;-70
2022/01/29 10:10:20;;;;;;;7.32;3.55;;;-0.50;1.00;;;0.91;72.40;98926.63;5002726;28;119331;-70
2022/01/29 10:12:48;;;;;;;3.75;2.13;;;-0.40;1.00;;;0.94;71.79;98920.78;5001056;28;129944;-70
2022/01/29 10:15:17;;;;;;;5.10;2.50;;;-0.30;1.00;;;1.18;72.01;98912.28;5003003;28;129679;-71
2022/01/29 10:17:49;;;;;;;9.23;4.45;;;-0.20;1.00;;;1.20;68.94;98918.16;5003281;28;119649;-70
2022/01/29 10:20:23;;;;;;;11.98;5.20;;;-0.20;1.00;;;0.83;71.04;98909.25;5004580;28;119890;-70
2022/01/29 10:22:55;;;;;;;6.68;2.40;;;-0.20;1.00;;;-0.37;73.61;98906.13;5004602;28;130630;-70
2022/01/29 10:25:26;;;;;;;9.77;3.20;;;-0.80;1.00;;;-0.64;75.32;98898.16;5002658;28;129642;-70
2022/01/29 10:28:12;;;;;;;8.40;3.90;;;-0.90;1.00;;;0.17;75.11;98894.50;5003482;28;120079;-70
2022/01/29 10:31:01;;;;;;;9.63;4.40;;;-0.60;1.00;;;0.70;72.89;98894.50;5003350;28;119698;-70
2022/01/29 10:33:31;;;;;;;15.68;6.43;;;-0.40;1.00;;;0.94;71.91;98883.38;5002473;28;130357;-69